Time;durP1;ratioP1;P1;durP2;ratioP2;P2;SDS_P1;SDS_P2;PMS_P1;PMS_P2;Temp;Humidity;BMP_temperature;BMP_pressure;BME280_temperature;BME280_humidity;BME280_pressure;Samples;Min_cycle;Max_cycle;Signal;HPM_P1;HPM_P2
2021/06/08 00:00:16;;;;;;;12.73;4.20;;;20.40;90.10;;;;;;5032352;28;20044;-59
2021/06/08 00:02:41;;;;;;;8.20;4.20;;;20.40;90.20;;;;;;5046114;28;20027;-59
2021/06/08 00:05:07;;;;;;;13.75;4.50;;;20.40;90.10;;;;;;5054217;28;20041;-59
2021/06/08 00:07:33;;;;;;;10.68;4.43;;;20.40;90.10;;;;;;5046599;28;20142;-60
2021/06/08 00:09:58;;;;;;;9.18;4.10;;;20.30;90.10;;;;;;5028414;28;20104;-59
2021/06/08 00:12:24;;;;;;;14.95;4.05;;;20.30;90.10;;;;;;5045138;28;20170;-60
2021/06/08 00:14:49;;;;;;;6.63;3.75;;;20.30;90.10;;;;;;5049856;28;20419;-60
2021/06/08 00:17:15;;;;;;;8.38;3.60;;;20.30;90.10;;;;;;5030795;28;20044;-60
2021/06/08 00:19:40;;;;;;;10.32;3.90;;;20.30;90.10;;;;;;5047814;28;20025;-60
2021/06/08 00:22:06;;;;;;;9.93;3.83;;;20.20;90.10;;;;;;5048517;28;20045;-59
2021/06/08 00:24:31;;;;;;;7.10;3.40;;;20.30;90.10;;;;;;5042361;28;20021;-60
2021/06/08 00:26:57;;;;;;;6.05;3.60;;;20.30;90.10;;;;;;5053088;28;20045;-60
2021/06/08 00:29:22;;;;;;;12.35;3.88;;;20.30;90.10;;;;;;5042300;28;20358;-60
2021/06/08 00:31:48;;;;;;;5.82;3.45;;;20.30;90.10;;;;;;5029180;28;20517;-60
2021/06/08 00:34:13;;;;;;;4.93;3.47;;;20.20;90.00;;;;;;5053825;28;20068;-60
2021/06/08 00:36:39;;;;;;;10.60;3.22;;;20.20;90.10;;;;;;5047912;28;20097;-60
2021/06/08 00:39:05;;;;;;;7.88;3.90;;;20.20;90.00;;;;;;5028046;28;20481;-60
2021/06/08 00:41:38;;;;;;;7.03;3.20;;;20.20;90.00;;;;;;5039231;28;20082;-60
2021/06/08 00:44:08;;;;;;;6.43;3.50;;;20.20;90.00;;;;;;5020388;28;20112;-60
2021/06/08 00:46:33;;;;;;;6.70;4.10;;;20.20;90.00;;;;;;5049557;28;20264;-60
2021/06/08 00:48:59;;;;;;;4.95;3.22;;;20.10;90.00;;;;;;5040239;28;20569;-60
2021/06/08 00:51:25;;;;;;;8.43;3.90;;;20.10;90.00;;;;;;5047600;28;20021;-60
2021/06/08 00:53:52;;;;;;;11.55;3.67;;;20.20;90.10;;;;;;5054698;28;20032;-60
2021/06/08 00:56:18;;;;;;;7.32;3.65;;;20.10;90.10;;;;;;5056977;28;20024;-60
2021/06/08 00:58:45;;;;;;;8.98;3.88;;;20.10;90.10;;;;;;5043819;28;20029;-59
2021/06/08 01:01:11;;;;;;;6.65;4.10;;;20.10;90.10;;;;;;5007861;28;20030;-60
2021/06/08 01:03:36;;;;;;;5.63;4.20;;;20.10;90.10;;;;;;5044842;28;20039;-59
2021/06/08 01:06:02;;;;;;;9.07;4.15;;;20.10;90.10;;;;;;5026882;28;20099;-60
2021/06/08 01:08:27;;;;;;;7.72;4.07;;;20.10;90.10;;;;;;5040060;28;20025;-60
2021/06/08 01:10:53;;;;;;;9.18;4.25;;;20.00;90.10;;;;;;5038946;28;20044;-59
2021/06/08 01:13:19;;;;;;;5.50;4.07;;;20.00;90.10;;;;;;5037574;28;20040;-60
2021/06/08 01:15:44;;;;;;;9.18;4.25;;;20.00;90.10;;;;;;5040958;28;20053;-59
2021/06/08 01:18:10;;;;;;;7.70;3.60;;;20.00;90.10;;;;;;5037743;28;20041;-60
2021/06/08 01:20:35;;;;;;;9.18;3.90;;;20.00;90.10;;;;;;5040049;28;20070;-60
2021/06/08 01:23:01;;;;;;;5.95;3.75;;;20.00;90.10;;;;;;5042062;28;20049;-60
2021/06/08 01:25:26;;;;;;;7.47;3.83;;;20.00;90.10;;;;;;5052824;28;20037;-60
2021/06/08 01:27:52;;;;;;;8.95;4.00;;;20.00;90.10;;;;;;5014459;28;20025;-60
2021/06/08 01:30:18;;;;;;;5.30;3.40;;;19.90;90.00;;;;;;5044617;28;20025;-59
2021/06/08 01:32:44;;;;;;;4.03;3.47;;;20.00;90.10;;;;;;5029939;28;20120;-60
2021/06/08 01:35:10;;;;;;;9.55;3.92;;;19.90;90.10;;;;;;5044018;28;20096;-60
2021/06/08 01:37:37;;;;;;;5.07;3.72;;;19.90;90.10;;;;;;5030761;28;20040;-60
2021/06/08 01:40:03;;;;;;;4.55;3.55;;;19.90;90.10;;;;;;5030696;28;20052;-59
2021/06/08 01:42:29;;;;;;;6.32;3.72;;;19.90;90.10;;;;;;5025704;28;20112;-60
2021/06/08 01:44:55;;;;;;;6.88;3.72;;;19.90;90.20;;;;;;5044197;28;20029;-60
2021/06/08 01:47:20;;;;;;;5.88;3.42;;;19.80;90.10;;;;;;5029662;28;20025;-60
2021/06/08 01:49:46;;;;;;;5.25;3.90;;;19.90;90.10;;;;;;5041611;28;20033;-60
2021/06/08 01:52:38;;;;;;;6.22;3.30;;;19.90;90.20;;;;;;5047075;28;20083;-60
2021/06/08 01:55:17;;;;;;;4.93;3.17;;;19.80;90.20;;;;;;5046774;28;20028;-60
2021/06/08 01:57:46;;;;;;;4.72;3.53;;;19.80;90.20;;;;;;5039677;28;20082;-60
2021/06/08 02:00:40;;;;;;;4.07;3.42;;;19.80;90.20;;;;;;5054626;28;20045;-60
2021/06/08 02:03:19;;;;;;;8.77;3.55;;;19.80;90.20;;;;;;5040532;28;20568;-60
2021/06/08 02:05:51;;;;;;;8.63;5.22;;;19.80;90.20;;;;;;5051329;28;20030;-60
2021/06/08 02:08:44;;;;;;;14.18;5.88;;;19.80;90.20;;;;;;5055794;28;20021;-59
2021/06/08 02:11:19;;;;;;;10.15;5.43;;;19.80;90.30;;;;;;5046429;28;20036;-60
2021/06/08 02:13:52;;;;;;;7.10;4.65;;;19.80;90.30;;;;;;5041614;28;20029;-60
2021/06/08 02:16:28;;;;;;;7.15;4.10;;;19.80;90.40;;;;;;5033655;28;20021;-60
2021/06/08 02:18:53;;;;;;;5.15;4.22;;;19.80;90.40;;;;;;5057358;28;20089;-60
2021/06/08 02:21:20;;;;;;;7.55;4.50;;;19.70;90.40;;;;;;5048982;28;20037;-60
2021/06/08 02:23:46;;;;;;;6.93;4.15;;;19.80;90.50;;;;;;5035504;28;20035;-60
2021/06/08 02:26:12;;;;;;;10.23;4.18;;;19.70;90.50;;;;;;5035471;28;20044;-60
2021/06/08 02:28:38;;;;;;;6.80;4.13;;;19.80;90.50;;;;;;5043720;28;20025;-60
2021/06/08 02:31:06;;;;;;;5.68;4.22;;;19.70;90.50;;;;;;5044090;28;20024;-60
2021/06/08 02:33:32;;;;;;;8.25;3.90;;;19.70;90.50;;;;;;5032099;28;20021;-60
2021/06/08 02:35:57;;;;;;;4.53;4.00;;;19.70;90.50;;;;;;5032075;28;20037;-60
2021/06/08 02:38:23;;;;;;;3.97;3.60;;;19.70;90.40;;;;;;5040463;28;20028;-60
2021/06/08 02:40:49;;;;;;;5.18;3.70;;;19.70;90.40;;;;;;5041037;28;20040;-60
2021/06/08 02:43:14;;;;;;;6.93;3.80;;;19.70;90.50;;;;;;5002015;28;20561;-60
2021/06/08 02:45:40;;;;;;;5.68;3.88;;;19.70;90.50;;;;;;5021193;28;20037;-59
2021/06/08 02:48:06;;;;;;;4.20;3.25;;;19.70;90.40;;;;;;5026841;28;20033;-60
2021/06/08 02:50:31;;;;;;;7.35;3.58;;;19.60;90.40;;;;;;5028431;28;20036;-60
2021/06/08 02:52:57;;;;;;;5.20;4.07;;;19.70;90.40;;;;;;5054226;28;20456;-60
2021/06/08 02:55:24;;;;;;;7.10;3.70;;;19.60;90.40;;;;;;5029870;28;20520;-60
2021/06/08 02:57:54;;;;;;;5.32;3.40;;;19.60;90.40;;;;;;5038362;28;20037;-60
2021/06/08 03:00:20;;;;;;;6.97;3.65;;;19.60;90.40;;;;;;5029347;28;20030;-59
2021/06/08 03:02:46;;;;;;;5.28;3.13;;;19.60;90.40;;;;;;5048707;28;20430;-59
2021/06/08 03:05:27;;;;;;;6.05;3.92;;;19.60;90.40;;;;;;5014484;28;20025;-59
2021/06/08 03:07:55;;;;;;;7.53;6.47;;;19.60;90.40;;;;;;5018748;28;20087;-60
2021/06/08 03:10:20;;;;;;;5.88;4.40;;;19.60;90.40;;;;;;5023431;28;20035;-60
2021/06/08 03:12:52;;;;;;;9.90;4.95;;;19.60;90.40;;;;;;5034109;28;20037;-59
2021/06/08 03:15:18;;;;;;;7.22;4.75;;;19.60;90.50;;;;;;5019053;28;20057;-59
2021/06/08 03:17:44;;;;;;;4.82;4.40;;;19.60;90.40;;;;;;5029830;28;20057;-59
2021/06/08 03:20:13;;;;;;;4.75;4.28;;;19.60;90.50;;;;;;5016767;28;20535;-60
2021/06/08 03:22:43;;;;;;;7.72;4.30;;;19.60;90.50;;;;;;5016264;28;20127;-60
2021/06/08 03:25:09;;;;;;;4.68;4.15;;;19.50;90.40;;;;;;5039184;28;20025;-60
2021/06/08 03:27:35;;;;;;;5.65;4.30;;;19.50;90.40;;;;;;5031645;28;20036;-60
2021/06/08 03:30:00;;;;;;;6.22;4.63;;;19.50;90.50;;;;;;5039715;28;20024;-60
2021/06/08 03:32:27;;;;;;;6.25;4.50;;;19.50;90.40;;;;;;5043508;28;20024;-59
2021/06/08 03:34:52;;;;;;;4.63;4.10;;;19.50;90.40;;;;;;5016346;28;20358;-60
2021/06/08 03:37:19;;;;;;;5.25;4.50;;;19.50;90.40;;;;;;5018597;28;20069;-60
2021/06/08 03:39:44;;;;;;;4.13;3.72;;;19.50;90.50;;;;;;5025853;28;20032;-59
2021/06/08 03:42:10;;;;;;;6.13;4.70;;;19.50;90.50;;;;;;5030411;28;20029;-60
2021/06/08 03:44:35;;;;;;;6.22;4.13;;;19.50;90.50;;;;;;5030745;28;20029;-59
2021/06/08 03:47:01;;;;;;;5.18;3.92;;;19.50;90.50;;;;;;5039919;28;20048;-59
2021/06/08 03:49:26;;;;;;;4.82;4.10;;;19.50;90.50;;;;;;5032481;28;20029;-60
2021/06/08 03:51:53;;;;;;;7.60;4.80;;;19.50;90.50;;;;;;5018394;28;20159;-60
2021/06/08 03:54:19;;;;;;;6.88;5.10;;;19.50;90.50;;;;;;5052477;28;20090;-60
2021/06/08 03:56:47;;;;;;;7.78;4.25;;;19.50;90.50;;;;;;5034961;28;20107;-60
2021/06/08 03:59:13;;;;;;;5.82;4.32;;;19.50;90.50;;;;;;5033401;28;20024;-60
2021/06/08 04:01:39;;;;;;;7.97;4.53;;;19.50;90.50;;;;;;5052452;28;20049;-60
2021/06/08 04:04:05;;;;;;;4.88;4.35;;;19.50;90.50;;;;;;5029131;28;20021;-60
2021/06/08 04:06:31;;;;;;;5.88;4.78;;;19.50;90.50;;;;;;5053206;28;20017;-60
2021/06/08 04:08:56;;;;;;;5.93;5.28;;;19.40;90.50;;;;;;5036008;28;20021;-60
2021/06/08 04:11:21;;;;;;;16.45;5.35;;;19.40;90.50;;;;;;5052955;28;20078;-60
2021/06/08 04:13:47;;;;;;;46.15;9.77;;;19.50;90.60;;;;;;5035568;28;20090;-60
2021/06/08 04:16:13;;;;;;;42.28;8.48;;;19.50;90.50;;;;;;5034604;28;20068;-60
2021/06/08 04:18:41;;;;;;;27.10;7.10;;;19.40;90.50;;;;;;5042518;28;20487;-60
2021/06/08 04:21:06;;;;;;;24.00;6.90;;;19.50;90.50;;;;;;5024688;28;20028;-59
2021/06/08 04:23:32;;;;;;;21.48;6.68;;;19.40;90.50;;;;;;5044518;28;20116;-60
2021/06/08 04:25:58;;;;;;;17.10;6.90;;;19.50;90.50;;;;;;5032947;28;20444;-60
2021/06/08 04:28:24;;;;;;;26.17;6.30;;;19.50;90.60;;;;;;5046571;28;20412;-60
2021/06/08 04:30:50;;;;;;;25.45;6.82;;;19.50;90.60;;;;;;5013809;28;20100;-60
2021/06/08 04:33:23;;;;;;;30.10;6.85;;;19.50;90.60;;;;;;5031559;28;20119;-59
2021/06/08 04:35:49;;;;;;;82.20;9.40;;;19.50;90.60;;;;;;5020555;28;20476;-60
2021/06/08 04:38:15;;;;;;;117.13;12.48;;;19.50;90.70;;;;;;5029526;28;20408;-60
2021/06/08 04:40:43;;;;;;;117.93;13.38;;;19.40;90.70;;;;;;5045538;28;20036;-60
2021/06/08 04:43:08;;;;;;;135.43;14.43;;;19.40;90.60;;;;;;5035537;28;20025;-60
2021/06/08 04:45:34;;;;;;;107.93;13.02;;;19.40;90.60;;;;;;5028188;28;20500;-60
2021/06/08 04:47:59;;;;;;;115.63;13.95;;;19.40;90.60;;;;;;5021406;28;20544;-59
2021/06/08 04:50:26;;;;;;;120.38;12.65;;;19.40;90.60;;;;;;5038626;28;20024;-60
2021/06/08 04:52:56;;;;;;;107.57;12.57;;;19.40;90.60;;;;;;5049045;28;20491;-60
2021/06/08 04:55:23;;;;;;;119.68;11.52;;;19.40;90.70;;;;;;5047238;28;20047;-60
2021/06/08 04:57:50;;;;;;;113.75;11.82;;;19.50;90.80;;;;;;5041428;28;20024;-60
2021/06/08 05:00:16;;;;;;;124.03;14.95;;;19.50;90.80;;;;;;5039218;28;20025;-60
2021/06/08 05:02:59;;;;;;;118.13;13.52;;;19.40;90.90;;;;;;5030858;28;20498;-60
2021/06/08 05:05:27;;;;;;;143.63;14.65;;;19.50;90.90;;;;;;5045817;28;20472;-60
2021/06/08 05:08:10;;;;;;;141.13;14.57;;;19.40;90.90;;;;;;5034340;28;20029;-60
2021/06/08 05:10:51;;;;;;;115.28;12.65;;;19.50;90.80;;;;;;5035602;28;20021;-60
2021/06/08 05:13:16;;;;;;;136.10;14.23;;;19.50;90.80;;;;;;5051176;28;20472;-60
2021/06/08 05:15:41;;;;;;;121.93;12.65;;;19.50;90.80;;;;;;5039379;28;20043;-59
2021/06/08 05:18:10;;;;;;;96.72;11.55;;;19.50;90.80;;;;;;5063586;28;20051;-60
2021/06/08 05:20:37;;;;;;;113.95;12.25;;;19.50;90.70;;;;;;5039185;28;20499;-59
2021/06/08 05:23:03;;;;;;;115.10;12.52;;;19.40;90.60;;;;;;5032266;28;20049;-60
2021/06/08 05:25:29;;;;;;;104.68;12.38;;;19.50;90.60;;;;;;5033333;28;20405;-60
2021/06/08 05:27:55;;;;;;;112.82;12.52;;;19.50;90.70;;;;;;5033555;28;20032;-59
2021/06/08 05:30:21;;;;;;;98.55;12.25;;;19.50;90.70;;;;;;5042781;28;20158;-60
2021/06/08 05:32:46;;;;;;;115.43;12.43;;;19.40;90.60;;;;;;5033873;28;20025;-60
2021/06/08 05:35:12;;;;;;;82.97;10.55;;;19.50;90.60;;;;;;5049952;28;20048;-60
2021/06/08 05:37:41;;;;;;;71.47;9.93;;;19.50;90.60;;;;;;5053328;28;20017;-60
2021/06/08 05:40:07;;;;;;;72.82;10.20;;;19.50;90.60;;;;;;5055094;28;20032;-60
2021/06/08 05:42:32;;;;;;;65.03;8.30;;;19.40;90.60;;;;;;5045233;28;20021;-60
2021/06/08 05:44:58;;;;;;;63.67;9.20;;;19.50;90.60;;;;;;5054760;28;20480;-60
2021/06/08 05:47:23;;;;;;;50.25;8.50;;;19.50;90.60;;;;;;5053943;28;20029;-60
2021/06/08 05:49:49;;;;;;;58.67;8.32;;;19.50;90.50;;;;;;5035526;28;20033;-60
2021/06/08 05:52:14;;;;;;;47.25;7.55;;;19.50;90.50;;;;;;5042274;28;20496;-60
2021/06/08 05:54:40;;;;;;;48.97;7.55;;;19.70;90.50;;;;;;5034059;28;20036;-60
2021/06/08 05:57:08;;;;;;;44.35;7.47;;;19.50;90.50;;;;;;5025272;28;20033;-60
2021/06/08 05:59:33;;;;;;;59.00;7.60;;;19.50;90.40;;;;;;5018668;28;20040;-60
2021/06/08 06:01:59;;;;;;;48.97;8.05;;;19.50;90.50;;;;;;5018632;28;20108;-60
2021/06/08 06:04:25;;;;;;;42.42;6.25;;;19.50;90.40;;;;;;5036943;28;20021;-60
2021/06/08 06:06:50;;;;;;;42.45;7.13;;;19.50;90.40;;;;;;5040657;28;20117;-60
2021/06/08 06:09:17;;;;;;;36.45;6.70;;;19.50;90.70;;;;;;5029306;28;20086;-60
2021/06/08 06:11:45;;;;;;;46.15;7.38;;;19.60;90.40;;;;;;5042240;28;20109;-60
2021/06/08 06:14:11;;;;;;;29.65;6.55;;;19.60;90.30;;;;;;5018032;28;20028;-60
2021/06/08 06:16:44;;;;;;;34.70;5.90;;;19.60;90.30;;;;;;5037821;28;20029;-60
2021/06/08 06:19:10;;;;;;;31.35;5.97;;;19.60;90.30;;;;;;5042506;28;20029;-60
2021/06/08 06:21:36;;;;;;;21.45;5.57;;;19.60;90.30;;;;;;5022143;28;20098;-60
2021/06/08 06:24:03;;;;;;;35.53;5.70;;;19.60;90.20;;;;;;5022631;28;20017;-60
2021/06/08 06:26:28;;;;;;;28.25;5.88;;;19.60;90.20;;;;;;5021433;28;20037;-60
2021/06/08 06:28:54;;;;;;;21.13;4.85;;;19.60;90.20;;;;;;5026839;28;20167;-60
2021/06/08 06:31:19;;;;;;;25.15;5.15;;;19.60;90.10;;;;;;5029884;28;20215;-60
2021/06/08 06:33:51;;;;;;;29.15;5.68;;;19.60;90.10;;;;;;5029538;28;20030;-60
2021/06/08 06:36:17;;;;;;;37.55;6.70;;;19.60;90.20;;;;;;5042478;28;20040;-60
2021/06/08 06:38:48;;;;;;;34.75;5.85;;;19.60;90.20;;;;;;5045471;28;20020;-60
2021/06/08 06:41:14;;;;;;;27.00;5.22;;;19.70;90.20;;;;;;5027746;28;20531;-60
2021/06/08 06:43:42;;;;;;;50.60;6.65;;;19.70;90.20;;;;;;5021427;28;20060;-60
2021/06/08 06:46:08;;;;;;;53.45;7.70;;;19.70;90.20;;;;;;5025545;28;20048;-60
2021/06/08 06:48:33;;;;;;;45.63;6.30;;;19.70;90.30;;;;;;5022615;28;20060;-62
2021/06/08 06:50:59;;;;;;;28.15;5.93;;;19.60;90.20;;;;;;5039308;28;20033;-60
2021/06/08 06:53:24;;;;;;;26.58;5.63;;;19.70;90.30;;;;;;5044087;28;20057;-60
2021/06/08 06:55:50;;;;;;;38.22;5.90;;;19.70;90.20;;;;;;5024370;28;20033;-60
2021/06/08 06:58:19;;;;;;;37.80;5.85;;;19.70;90.20;;;;;;5043635;28;20048;-60
2021/06/08 07:00:45;;;;;;;30.92;4.90;;;19.70;90.10;;;;;;5039436;28;20079;-60
2021/06/08 07:03:11;;;;;;;27.50;5.70;;;19.70;90.20;;;;;;5031212;28;20029;-60
2021/06/08 07:05:37;;;;;;;34.97;5.75;;;19.70;90.30;;;;;;5035552;28;20036;-60
2021/06/08 07:08:04;;;;;;;27.48;5.10;;;19.70;90.50;;;;;;5020888;28;20056;-60
2021/06/08 07:10:30;;;;;;;24.35;5.65;;;19.70;90.70;;;;;;5025897;28;20043;-60
2021/06/08 07:12:56;;;;;;;29.38;5.75;;;19.60;90.70;;;;;;5023037;28;20033;-60
2021/06/08 07:15:24;;;;;;;20.00;5.05;;;19.60;90.70;;;;;;5012250;28;20100;-60
2021/06/08 07:17:50;;;;;;;22.65;5.10;;;19.60;90.80;;;;;;5019289;28;20075;-60
2021/06/08 07:20:17;;;;;;;23.02;4.93;;;19.50;90.90;;;;;;5026378;28;21230;-60
2021/06/08 07:22:43;;;;;;;18.67;4.78;;;19.50;91.00;;;;;;5008406;28;20043;-60
2021/06/08 07:25:09;;;;;;;23.45;5.03;;;19.40;91.20;;;;;;5015864;28;20398;-60
2021/06/08 07:27:35;;;;;;;13.52;4.45;;;19.40;91.20;;;;;;5038368;28;20041;-60
2021/06/08 07:30:00;;;;;;;46.95;7.85;;;19.50;91.40;;;;;;5025369;28;20021;-60
2021/06/08 07:32:37;;;;;;;38.97;6.78;;;19.50;91.40;;;;;;5040471;28;20029;-60
2021/06/08 07:35:07;;;;;;;40.58;7.15;;;19.40;91.40;;;;;;5022891;28;20635;-60
2021/06/08 07:37:33;;;;;;;25.67;5.72;;;19.40;91.30;;;;;;5042307;28;20044;-60
2021/06/08 07:40:03;;;;;;;19.10;5.10;;;19.50;91.20;;;;;;5022373;28;20025;-60
2021/06/08 07:42:28;;;;;;;18.63;5.10;;;19.50;91.20;;;;;;5014291;28;20057;-60
2021/06/08 07:45:02;;;;;;;25.98;6.63;;;19.50;91.10;;;;;;5027971;28;21248;-60
2021/06/08 07:47:30;;;;;;;58.08;8.85;;;19.60;91.00;;;;;;5021209;28;20087;-60
2021/06/08 07:49:56;;;;;;;20.80;6.13;;;19.50;91.00;;;;;;5010687;28;20033;-61
2021/06/08 07:52:23;;;;;;;45.13;7.15;;;19.60;90.90;;;;;;5021474;28;20029;-60
2021/06/08 07:54:49;;;;;;;40.33;8.18;;;19.50;90.90;;;;;;5020697;28;20048;-60
2021/06/08 07:57:17;;;;;;;29.55;6.28;;;19.60;90.90;;;;;;5023894;28;20021;-60
2021/06/08 07:59:42;;;;;;;28.50;5.53;;;19.60;91.00;;;;;;4997349;28;20048;-60
2021/06/08 08:02:09;;;;;;;46.10;10.30;;;19.60;90.90;;;;;;5005406;28;20434;-60
2021/06/08 08:04:38;;;;;;;36.40;8.05;;;19.60;90.80;;;;;;5036224;28;20028;-60
2021/06/08 08:07:04;;;;;;;47.45;7.38;;;19.70;90.70;;;;;;5033216;28;20072;-60
2021/06/08 08:09:30;;;;;;;34.05;6.90;;;19.70;90.60;;;;;;4997756;28;20037;-59
2021/06/08 08:11:56;;;;;;;21.00;6.40;;;19.70;90.70;;;;;;5018419;28;20037;-59
2021/06/08 08:14:22;;;;;;;16.92;6.63;;;19.70;90.60;;;;;;5022997;28;20086;-60
2021/06/08 08:16:48;;;;;;;23.52;6.68;;;19.80;90.50;;;;;;5042261;28;20190;-60
2021/06/08 08:19:17;;;;;;;39.53;7.50;;;19.80;90.40;;;;;;5024123;28;20734;-59
2021/06/08 08:21:43;;;;;;;37.05;6.93;;;19.90;90.40;;;;;;5026134;28;20144;-61
2021/06/08 08:24:09;;;;;;;41.50;6.55;;;19.90;90.40;;;;;;5044330;28;20636;-59
2021/06/08 08:26:34;;;;;;;35.40;6.93;;;19.90;90.40;;;;;;5025021;28;20048;-59
2021/06/08 08:29:01;;;;;;;32.80;7.13;;;19.90;90.30;;;;;;5040503;28;20017;-59
2021/06/08 08:31:28;;;;;;;22.02;5.70;;;20.00;90.20;;;;;;5035502;28;20512;-59
2021/06/08 08:33:54;;;;;;;29.05;5.80;;;20.00;90.10;;;;;;5042304;28;20396;-59
2021/06/08 08:36:20;;;;;;;15.73;4.80;;;20.00;90.10;;;;;;5026042;28;20041;-59
2021/06/08 08:38:45;;;;;;;17.40;5.13;;;20.00;90.00;;;;;;5029067;28;20038;-59
2021/06/08 08:41:11;;;;;;;14.07;5.30;;;20.00;89.90;;;;;;5043498;28;20124;-59
2021/06/08 08:43:38;;;;;;;26.63;5.25;;;20.00;89.90;;;;;;5027041;28;20912;-60
2021/06/08 08:46:04;;;;;;;26.80;5.40;;;20.10;90.00;;;;;;5040799;28;20029;-59
2021/06/08 08:48:30;;;;;;;37.75;6.95;;;20.10;90.00;;;;;;5028722;28;20048;-60
2021/06/08 08:50:56;;;;;;;63.85;7.68;;;20.10;89.90;;;;;;5028637;28;20016;-59
2021/06/08 08:53:21;;;;;;;43.65;7.40;;;20.10;89.80;;;;;;5042250;28;20037;-60
2021/06/08 08:55:47;;;;;;;40.42;6.80;;;20.10;89.50;;;;;;5011230;28;20032;-59
2021/06/08 08:58:14;;;;;;;56.25;8.20;;;20.20;89.40;;;;;;5027592;28;20029;-60
2021/06/08 09:00:39;;;;;;;63.20;8.63;;;20.20;89.90;;;;;;5024808;28;20099;-59
2021/06/08 09:03:06;;;;;;;70.25;9.27;;;20.20;89.20;;;;;;5041632;28;20477;-60
2021/06/08 09:05:35;;;;;;;56.15;9.23;;;20.20;89.10;;;;;;5023869;28;20040;-59
2021/06/08 09:08:00;;;;;;;44.90;7.82;;;20.20;89.10;;;;;;5032548;28;20039;-59
2021/06/08 09:10:26;;;;;;;59.45;9.25;;;20.30;89.40;;;;;;5027090;28;20036;-60
2021/06/08 09:12:51;;;;;;;45.80;7.85;;;20.30;89.30;;;;;;5030474;28;20013;-60
2021/06/08 09:15:17;;;;;;;38.22;7.80;;;20.30;89.20;;;;;;5029731;28;20033;-60
2021/06/08 09:17:43;;;;;;;111.38;14.07;;;20.40;89.30;;;;;;5043500;28;20029;-59
2021/06/08 09:20:09;;;;;;;107.15;13.18;;;20.40;89.00;;;;;;5025903;28;20029;-60
2021/06/08 09:22:55;;;;;;;51.72;11.05;;;20.40;88.70;;;;;;5027125;28;20044;-60
2021/06/08 09:25:45;;;;;;;70.00;8.88;;;20.50;88.60;;;;;;5027208;28;20032;-59
2021/06/08 09:28:32;;;;;;;67.32;9.40;;;20.60;88.20;;;;;;5027236;28;20032;-60
2021/06/08 09:31:12;;;;;;;40.80;8.88;;;20.60;88.00;;;;;;5043482;28;20027;-60
2021/06/08 09:33:45;;;;;;;53.53;7.63;;;20.60;87.50;;;;;;5042133;28;20078;-60
2021/06/08 09:36:15;;;;;;;45.38;7.63;;;20.70;87.40;;;;;;5026177;28;20110;-60
2021/06/08 09:38:42;;;;;;;50.90;8.25;;;20.70;87.20;;;;;;5026620;28;20523;-60
2021/06/08 09:41:17;;;;;;;39.38;6.63;;;20.70;87.10;;;;;;5044624;28;20116;-59
2021/06/08 09:44:02;;;;;;;34.83;8.02;;;20.80;86.70;;;;;;5028306;28;20025;-60
2021/06/08 09:46:43;;;;;;;33.95;8.35;;;20.80;86.60;;;;;;5038595;28;20570;-59
2021/06/08 09:49:09;;;;;;;64.47;8.70;;;20.90;86.50;;;;;;5041440;28;20112;-59
2021/06/08 09:51:58;;;;;;;54.55;7.85;;;20.90;86.20;;;;;;5026245;28;20147;-59
2021/06/08 09:54:38;;;;;;;33.75;7.40;;;20.90;85.70;;;;;;5037059;28;20501;-60
2021/06/08 09:57:32;;;;;;;41.67;7.38;;;20.90;85.30;;;;;;5036192;28;20068;-59
2021/06/08 10:00:02;;;;;;;33.60;6.05;;;21.00;85.00;;;;;;5020638;28;20075;-60
2021/06/08 10:02:43;;;;;;;80.88;9.90;;;21.00;84.20;;;;;;5025101;28;20017;-60
2021/06/08 10:05:28;;;;;;;29.25;5.72;;;21.00;84.40;;;;;;5043381;28;20032;-60
2021/06/08 10:08:05;;;;;;;30.80;5.43;;;21.10;84.10;;;;;;5028558;28;20033;-60
2021/06/08 10:10:38;;;;;;;31.58;6.20;;;21.10;84.00;;;;;;5023585;28;20027;-60
2021/06/08 10:13:05;;;;;;;24.45;5.43;;;21.10;83.60;;;;;;5025795;28;20123;-60
2021/06/08 10:15:35;;;;;;;217.30;22.42;;;21.10;83.60;;;;;;5024757;28;20025;-60
2021/06/08 10:18:03;;;;;;;49.53;8.23;;;21.20;83.90;;;;;;5026377;28;20087;-60
2021/06/08 10:20:30;;;;;;;38.05;6.25;;;21.20;83.60;;;;;;5024415;28;20033;-60
2021/06/08 10:22:57;;;;;;;29.90;5.88;;;21.30;83.40;;;;;;5027416;28;20052;-60
2021/06/08 10:25:23;;;;;;;34.58;5.80;;;21.30;83.00;;;;;;5044634;28;20118;-60
2021/06/08 10:27:48;;;;;;;41.08;5.03;;;21.30;83.30;;;;;;5026305;28;20041;-60
2021/06/08 10:30:14;;;;;;;55.25;8.05;;;21.30;83.40;;;;;;5026361;28;20467;-60
2021/06/08 10:32:40;;;;;;;39.05;6.28;;;21.40;83.60;;;;;;5023178;28;20587;-60
2021/06/08 10:35:06;;;;;;;35.85;6.03;;;21.40;83.70;;;;;;5042730;28;20124;-60
2021/06/08 10:37:32;;;;;;;31.63;6.05;;;21.40;83.70;;;;;;5023266;28;20065;-60
2021/06/08 10:40:01;;;;;;;18.40;5.70;;;21.50;83.70;;;;;;5024150;28;20120;-60
2021/06/08 10:42:27;;;;;;;58.88;9.40;;;21.50;83.30;;;;;;5033144;28;20021;-60
2021/06/08 10:45:01;;;;;;;35.17;6.00;;;21.60;83.00;;;;;;5024975;28;20116;-60
2021/06/08 10:50:30;;;;;;;30.52;5.15;;;21.70;82.10;;;;;;5041030;28;20438;-60
2021/06/08 10:52:56;;;;;;;228.68;21.92;;;21.70;81.70;;;;;;5025890;28;20374;-60
2021/06/08 10:55:36;;;;;;;28.10;5.65;;;21.90;81.60;;;;;;5022005;28;21010;-60
2021/06/08 10:58:03;;;;;;;28.23;5.85;;;22.00;80.90;;;;;;5006281;28;20058;-60
2021/06/08 11:00:32;;;;;;;71.18;8.55;;;22.00;81.10;;;;;;5022937;28;20021;-60
2021/06/08 11:03:01;;;;;;;51.25;6.10;;;22.00;81.10;;;;;;5039791;28;20448;-60
2021/06/08 11:05:46;;;;;;;52.92;7.30;;;22.10;80.60;;;;;;5023738;28;20337;-60
2021/06/08 11:08:12;;;;;;;31.35;6.05;;;22.10;80.40;;;;;;5024209;28;20028;-61
2021/06/08 11:10:42;;;;;;;35.55;5.32;;;22.10;80.50;;;;;;5020389;28;20385;-60
2021/06/08 11:13:07;;;;;;;24.45;5.10;;;22.20;80.30;;;;;;5041673;28;20056;-60
2021/06/08 11:15:36;;;;;;;30.30;5.10;;;22.20;80.00;;;;;;5040458;28;20068;-60
2021/06/08 11:18:21;;;;;;;39.25;5.45;;;22.30;80.10;;;;;;5012926;28;20080;-59
2021/06/08 11:20:55;;;;;;;26.88;5.63;;;22.30;80.00;;;;;;5089124;27;20188;-59
2021/06/08 11:23:43;;;;;;;47.47;6.78;;;22.40;79.60;;;;;;5071560;28;20044;-61
2021/06/08 11:26:18;;;;;;;213.70;24.08;;;22.50;79.40;;;;;;5072269;28;20025;-60
2021/06/08 11:28:51;;;;;;;81.30;9.63;;;22.60;79.10;;;;;;5052353;28;20043;-59
2021/06/08 11:31:18;;;;;;;48.92;7.03;;;22.60;78.70;;;;;;5054519;28;20035;-59
2021/06/08 11:33:50;;;;;;;46.75;6.68;;;22.60;78.70;;;;;;5053632;28;20115;-59
2021/06/08 11:36:19;;;;;;;22.42;4.75;;;22.70;78.30;;;;;;5054202;28;20025;-60
2021/06/08 11:38:45;;;;;;;45.03;6.32;;;22.80;77.70;;;;;;5055928;28;20431;-59
2021/06/08 11:41:12;;;;;;;47.30;6.25;;;22.80;77.20;;;;;;5055003;28;20021;-60
2021/06/08 11:43:37;;;;;;;23.48;5.05;;;22.80;77.30;;;;;;5039617;28;20431;-59
2021/06/08 11:46:11;;;;;;;22.23;4.18;;;22.70;77.20;;;;;;5054203;28;20124;-60
2021/06/08 11:48:38;;;;;;;22.20;4.07;;;22.80;76.80;;;;;;5054224;28;20075;-59
2021/06/08 11:51:23;;;;;;;29.50;4.82;;;22.70;76.70;;;;;;5038542;28;20685;-59
2021/06/08 11:54:11;;;;;;;26.17;4.80;;;22.70;76.70;;;;;;5056744;28;20052;-59
2021/06/08 11:56:46;;;;;;;36.08;6.10;;;22.70;76.50;;;;;;5041712;28;20064;-60
2021/06/08 11:59:12;;;;;;;31.53;4.90;;;22.70;76.10;;;;;;5055665;28;20041;-60
2021/06/08 12:01:39;;;;;;;23.90;4.93;;;22.70;75.70;;;;;;5055682;28;20294;-60
2021/06/08 12:04:05;;;;;;;24.73;3.95;;;22.90;75.50;;;;;;5054032;28;20662;-60
2021/06/08 12:06:55;;;;;;;19.52;4.07;;;22.90;75.00;;;;;;5035979;28;20040;-60
2021/06/08 12:09:21;;;;;;;26.58;4.65;;;23.00;74.90;;;;;;5056463;28;20093;-60
2021/06/08 12:11:48;;;;;;;21.58;5.22;;;23.10;75.00;;;;;;5053429;28;20077;-60
2021/06/08 12:14:13;;;;;;;19.42;4.30;;;23.20;74.70;;;;;;5057830;28;20075;-60
2021/06/08 12:16:39;;;;;;;15.10;3.95;;;23.20;74.50;;;;;;5055973;28;20112;-61
2021/06/08 12:19:08;;;;;;;16.58;4.28;;;23.20;74.40;;;;;;5057279;28;20500;-59
2021/06/08 12:21:33;;;;;;;19.13;3.55;;;23.20;73.60;;;;;;5020830;28;20240;-60
2021/06/08 12:24:00;;;;;;;17.60;3.60;;;23.20;73.70;;;;;;5046770;28;20132;-60
2021/06/08 12:26:25;;;;;;;17.33;3.47;;;23.20;73.70;;;;;;5056355;28;20041;-60
2021/06/08 12:29:20;;;;;;;18.60;3.55;;;23.30;73.40;;;;;;5054258;28;20021;-60
2021/06/08 12:32:07;;;;;;;12.25;3.38;;;23.30;73.60;;;;;;5045045;28;20045;-61
2021/06/08 12:34:36;;;;;;;13.25;3.42;;;23.40;73.20;;;;;;5056413;28;20025;-59
2021/06/08 12:37:02;;;;;;;17.27;3.90;;;23.40;72.70;;;;;;5034606;28;20025;-61
2021/06/08 12:39:31;;;;;;;23.02;4.53;;;23.30;72.80;;;;;;5043647;28;20052;-61
2021/06/08 12:42:12;;;;;;;31.70;5.18;;;23.30;72.90;;;;;;5041146;28;20259;-61
2021/06/08 12:44:40;;;;;;;22.88;5.40;;;23.50;73.60;;;;;;5042555;28;20159;-60
2021/06/08 12:47:06;;;;;;;25.67;4.45;;;23.50;72.90;;;;;;5041206;28;20029;-61